sensor_id;sensor_type;location;lat;lon;timestamp;P1;durP1;ratioP1;P2;durP2;ratioP2
19149;SDS011;9707;49.158;8.632;2023-04-24T00:00:14;1.52;;;0.50;;
19149;SDS011;9707;49.158;8.632;2023-04-24T00:02:40;0.70;;;0.40;;
19149;SDS011;9707;49.158;8.632;2023-04-24T00:05:06;0.88;;;0.45;;
19149;SDS011;9707;49.158;8.632;2023-04-24T00:07:32;2.53;;;0.57;;
19149;SDS011;9707;49.158;8.632;2023-04-24T00:09:58;1.67;;;0.40;;
19149;SDS011;9707;49.158;8.632;2023-04-24T00:12:24;1.63;;;0.28;;
19149;SDS011;9707;49.158;8.632;2023-04-24T00:14:50;2.15;;;0.35;;
19149;SDS011;9707;49.158;8.632;2023-04-24T00:17:15;1.23;;;0.60;;
19149;SDS011;9707;49.158;8.632;2023-04-24T00:19:40;0.63;;;0.40;;
19149;SDS011;9707;49.158;8.632;2023-04-24T00:22:05;1.88;;;0.60;;
19149;SDS011;9707;49.158;8.632;2023-04-24T00:24:31;1.45;;;0.30;;
19149;SDS011;9707;49.158;8.632;2023-04-24T00:26:56;1.00;;;0.30;;
19149;SDS011;9707;49.158;8.632;2023-04-24T00:29:22;1.33;;;0.30;;
19149;SDS011;9707;49.158;8.632;2023-04-24T00:31:47;0.90;;;0.30;;
19149;SDS011;9707;49.158;8.632;2023-04-24T00:34:12;0.65;;;0.25;;
19149;SDS011;9707;49.158;8.632;2023-04-24T00:36:38;1.73;;;0.50;;
19149;SDS011;9707;49.158;8.632;2023-04-24T00:39:03;1.10;;;0.40;;
19149;SDS011;9707;49.158;8.632;2023-04-24T00:41:29;1.90;;;0.63;;
19149;SDS011;9707;49.158;8.632;2023-04-24T00:43:54;1.70;;;0.40;;
19149;SDS011;9707;49.158;8.632;2023-04-24T00:46:20;1.33;;;0.43;;
19149;SDS011;9707;49.158;8.632;2023-04-24T00:48:46;1.33;;;0.60;;
19149;SDS011;9707;49.158;8.632;2023-04-24T00:51:11;0.68;;;0.30;;
19149;SDS011;9707;49.158;8.632;2023-04-24T00:53:37;1.17;;;0.38;;
19149;SDS011;9707;49.158;8.632;2023-04-24T00:56:02;0.32;;;0.30;;
19149;SDS011;9707;49.158;8.632;2023-04-24T00:58:28;1.83;;;0.55;;
19149;SDS011;9707;49.158;8.632;2023-04-24T01:00:54;2.05;;;0.57;;
19149;SDS011;9707;49.158;8.632;2023-04-24T01:03:20;1.95;;;0.40;;
19149;SDS011;9707;49.158;8.632;2023-04-24T01:05:47;1.60;;;0.28;;
19149;SDS011;9707;49.158;8.632;2023-04-24T01:08:14;2.75;;;0.50;;
19149;SDS011;9707;49.158;8.632;2023-04-24T01:10:40;1.45;;;0.43;;
19149;SDS011;9707;49.158;8.632;2023-04-24T01:13:06;1.58;;;0.40;;
19149;SDS011;9707;49.158;8.632;2023-04-24T01:15:33;1.15;;;0.38;;
19149;SDS011;9707;49.158;8.632;2023-04-24T01:17:59;2.20;;;0.38;;
19149;SDS011;9707;49.158;8.632;2023-04-24T01:20:24;1.27;;;0.30;;
19149;SDS011;9707;49.158;8.632;2023-04-24T01:22:51;0.55;;;0.30;;
19149;SDS011;9707;49.158;8.632;2023-04-24T01:25:16;0.38;;;0.35;;
19149;SDS011;9707;49.158;8.632;2023-04-24T01:27:41;1.63;;;0.28;;
19149;SDS011;9707;49.158;8.632;2023-04-24T01:30:07;1.23;;;0.50;;
19149;SDS011;9707;49.158;8.632;2023-04-24T01:32:33;0.52;;;0.32;;
19149;SDS011;9707;49.158;8.632;2023-04-24T01:34:58;1.30;;;0.40;;
19149;SDS011;9707;49.158;8.632;2023-04-24T01:37:24;1.90;;;0.70;;
19149;SDS011;9707;49.158;8.632;2023-04-24T01:39:49;1.05;;;0.52;;
19149;SDS011;9707;49.158;8.632;2023-04-24T01:42:14;0.47;;;0.28;;
19149;SDS011;9707;49.158;8.632;2023-04-24T01:44:40;2.60;;;0.60;;
19149;SDS011;9707;49.158;8.632;2023-04-24T01:47:06;1.00;;;0.40;;
19149;SDS011;9707;49.158;8.632;2023-04-24T01:49:31;1.13;;;0.40;;
19149;SDS011;9707;49.158;8.632;2023-04-24T01:51:57;1.77;;;0.40;;
19149;SDS011;9707;49.158;8.632;2023-04-24T01:54:23;1.73;;;0.47;;
19149;SDS011;9707;49.158;8.632;2023-04-24T01:56:48;3.63;;;0.52;;
19149;SDS011;9707;49.158;8.632;2023-04-24T01:59:13;2.53;;;0.40;;
19149;SDS011;9707;49.158;8.632;2023-04-24T02:01:40;0.50;;;0.30;;
19149;SDS011;9707;49.158;8.632;2023-04-24T02:04:06;1.65;;;0.38;;
19149;SDS011;9707;49.158;8.632;2023-04-24T02:06:32;2.00;;;0.50;;
19149;SDS011;9707;49.158;8.632;2023-04-24T02:09:00;1.90;;;0.73;;
19149;SDS011;9707;49.158;8.632;2023-04-24T02:11:26;2.10;;;0.60;;
19149;SDS011;9707;49.158;8.632;2023-04-24T02:13:52;0.93;;;0.45;;
19149;SDS011;9707;49.158;8.632;2023-04-24T02:16:18;0.47;;;0.30;;
19149;SDS011;9707;49.158;8.632;2023-04-24T02:18:43;1.88;;;0.38;;
19149;SDS011;9707;49.158;8.632;2023-04-24T02:21:09;3.45;;;0.50;;
19149;SDS011;9707;49.158;8.632;2023-04-24T02:23:34;2.25;;;0.50;;
19149;SDS011;9707;49.158;8.632;2023-04-24T02:26:00;2.10;;;0.40;;
19149;SDS011;9707;49.158;8.632;2023-04-24T02:28:25;11.75;;;0.98;;
19149;SDS011;9707;49.158;8.632;2023-04-24T02:30:50;1.10;;;0.30;;
19149;SDS011;9707;49.158;8.632;2023-04-24T02:33:15;0.70;;;0.38;;
19149;SDS011;9707;49.158;8.632;2023-04-24T02:35:41;0.88;;;0.30;;
19149;SDS011;9707;49.158;8.632;2023-04-24T02:38:06;2.35;;;0.40;;
19149;SDS011;9707;49.158;8.632;2023-04-24T02:40:31;2.30;;;0.90;;
19149;SDS011;9707;49.158;8.632;2023-04-24T02:42:57;1.00;;;0.40;;
19149;SDS011;9707;49.158;8.632;2023-04-24T02:45:22;1.75;;;0.75;;
19149;SDS011;9707;49.158;8.632;2023-04-24T02:47:47;1.40;;;0.63;;
19149;SDS011;9707;49.158;8.632;2023-04-24T02:50:12;0.50;;;0.30;;
19149;SDS011;9707;49.158;8.632;2023-04-24T02:52:38;0.95;;;0.43;;
19149;SDS011;9707;49.158;8.632;2023-04-24T02:55:03;1.13;;;0.30;;
19149;SDS011;9707;49.158;8.632;2023-04-24T02:57:29;2.13;;;0.47;;
19149;SDS011;9707;49.158;8.632;2023-04-24T02:59:54;1.10;;;0.40;;
19149;SDS011;9707;49.158;8.632;2023-04-24T03:02:20;1.40;;;0.25;;
19149;SDS011;9707;49.158;8.632;2023-04-24T03:04:45;1.45;;;0.32;;
19149;SDS011;9707;49.158;8.632;2023-04-24T03:07:13;1.23;;;0.50;;
19149;SDS011;9707;49.158;8.632;2023-04-24T03:09:39;3.47;;;0.65;;
19149;SDS011;9707;49.158;8.632;2023-04-24T03:12:05;1.23;;;0.45;;
19149;SDS011;9707;49.158;8.632;2023-04-24T03:14:30;0.90;;;0.50;;
19149;SDS011;9707;49.158;8.632;2023-04-24T03:16:56;1.40;;;0.50;;
19149;SDS011;9707;49.158;8.632;2023-04-24T03:19:21;4.00;;;0.88;;
19149;SDS011;9707;49.158;8.632;2023-04-24T03:21:47;1.33;;;0.40;;
19149;SDS011;9707;49.158;8.632;2023-04-24T03:24:12;1.35;;;0.32;;
19149;SDS011;9707;49.158;8.632;2023-04-24T03:26:37;1.58;;;0.63;;
19149;SDS011;9707;49.158;8.632;2023-04-24T03:29:02;2.67;;;0.80;;
19149;SDS011;9707;49.158;8.632;2023-04-24T03:31:28;1.90;;;0.85;;
19149;SDS011;9707;49.158;8.632;2023-04-24T03:33:53;3.70;;;2.88;;
19149;SDS011;9707;49.158;8.632;2023-04-24T03:36:18;1.25;;;0.65;;
19149;SDS011;9707;49.158;8.632;2023-04-24T03:38:44;1.40;;;1.30;;
19149;SDS011;9707;49.158;8.632;2023-04-24T03:41:10;3.65;;;1.00;;
19149;SDS011;9707;49.158;8.632;2023-04-24T03:43:35;2.28;;;0.90;;
19149;SDS011;9707;49.158;8.632;2023-04-24T03:46:00;0.77;;;0.68;;
19149;SDS011;9707;49.158;8.632;2023-04-24T03:48:26;1.25;;;0.80;;
19149;SDS011;9707;49.158;8.632;2023-04-24T03:50:52;0.88;;;0.80;;
19149;SDS011;9707;49.158;8.632;2023-04-24T03:53:17;1.88;;;0.70;;
19149;SDS011;9707;49.158;8.632;2023-04-24T03:55:42;1.67;;;1.08;;
19149;SDS011;9707;49.158;8.632;2023-04-24T03:58:08;1.77;;;0.68;;
19149;SDS011;9707;49.158;8.632;2023-04-24T04:00:33;1.88;;;0.80;;
19149;SDS011;9707;49.158;8.632;2023-04-24T04:02:59;0.98;;;0.88;;
19149;SDS011;9707;49.158;8.632;2023-04-24T04:05:24;1.23;;;1.00;;
19149;SDS011;9707;49.158;8.632;2023-04-24T04:07:50;2.20;;;1.20;;
19149;SDS011;9707;49.158;8.632;2023-04-24T04:10:15;3.55;;;1.40;;
19149;SDS011;9707;49.158;8.632;2023-04-24T04:12:42;2.08;;;0.90;;
19149;SDS011;9707;49.158;8.632;2023-04-24T04:15:07;1.15;;;0.88;;
19149;SDS011;9707;49.158;8.632;2023-04-24T04:17:32;3.63;;;1.10;;
19149;SDS011;9707;49.158;8.632;2023-04-24T04:19:58;2.88;;;1.00;;
19149;SDS011;9707;49.158;8.632;2023-04-24T04:22:23;1.92;;;0.98;;
19149;SDS011;9707;49.158;8.632;2023-04-24T04:24:48;1.95;;;0.77;;
19149;SDS011;9707;49.158;8.632;2023-04-24T04:27:15;0.90;;;0.80;;
19149;SDS011;9707;49.158;8.632;2023-04-24T04:29:41;2.30;;;1.27;;
19149;SDS011;9707;49.158;8.632;2023-04-24T04:32:06;1.30;;;1.02;;
19149;SDS011;9707;49.158;8.632;2023-04-24T04:34:32;2.58;;;1.10;;
19149;SDS011;9707;49.158;8.632;2023-04-24T04:36:58;2.22;;;1.25;;
19149;SDS011;9707;49.158;8.632;2023-04-24T04:39:27;3.63;;;1.02;;
19149;SDS011;9707;49.158;8.632;2023-04-24T04:41:53;2.53;;;1.00;;
19149;SDS011;9707;49.158;8.632;2023-04-24T04:44:18;4.20;;;1.20;;
19149;SDS011;9707;49.158;8.632;2023-04-24T04:46:44;1.88;;;0.80;;
19149;SDS011;9707;49.158;8.632;2023-04-24T04:49:09;2.63;;;1.25;;
19149;SDS011;9707;49.158;8.632;2023-04-24T04:51:35;2.35;;;1.40;;
19149;SDS011;9707;49.158;8.632;2023-04-24T04:54:01;2.40;;;0.93;;
19149;SDS011;9707;49.158;8.632;2023-04-24T04:56:26;1.77;;;1.05;;
19149;SDS011;9707;49.158;8.632;2023-04-24T04:58:52;3.15;;;0.80;;
19149;SDS011;9707;49.158;8.632;2023-04-24T05:01:17;1.63;;;1.20;;
19149;SDS011;9707;49.158;8.632;2023-04-24T05:03:42;2.50;;;1.30;;
19149;SDS011;9707;49.158;8.632;2023-04-24T05:06:07;2.05;;;1.10;;
19149;SDS011;9707;49.158;8.632;2023-04-24T05:08:33;2.38;;;1.15;;
19149;SDS011;9707;49.158;8.632;2023-04-24T05:10:58;1.40;;;1.08;;
19149;SDS011;9707;49.158;8.632;2023-04-24T05:13:23;1.60;;;1.02;;
19149;SDS011;9707;49.158;8.632;2023-04-24T05:15:49;1.98;;;1.30;;
19149;SDS011;9707;49.158;8.632;2023-04-24T05:18:14;2.03;;;1.20;;
19149;SDS011;9707;49.158;8.632;2023-04-24T05:20:40;3.63;;;1.23;;
19149;SDS011;9707;49.158;8.632;2023-04-24T05:23:07;1.67;;;0.93;;
19149;SDS011;9707;49.158;8.632;2023-04-24T05:25:33;2.55;;;1.10;;
19149;SDS011;9707;49.158;8.632;2023-04-24T05:28:00;1.60;;;1.10;;
19149;SDS011;9707;49.158;8.632;2023-04-24T05:30:25;1.73;;;0.93;;
19149;SDS011;9707;49.158;8.632;2023-04-24T05:32:50;1.52;;;0.85;;
19149;SDS011;9707;49.158;8.632;2023-04-24T05:35:16;4.15;;;1.10;;
19149;SDS011;9707;49.158;8.632;2023-04-24T05:37:41;2.35;;;1.38;;
19149;SDS011;9707;49.158;8.632;2023-04-24T05:40:09;2.78;;;1.30;;
19149;SDS011;9707;49.158;8.632;2023-04-24T05:42:35;1.73;;;1.23;;
19149;SDS011;9707;49.158;8.632;2023-04-24T05:45:00;3.10;;;1.40;;
19149;SDS011;9707;49.158;8.632;2023-04-24T05:47:25;3.25;;;1.50;;
19149;SDS011;9707;49.158;8.632;2023-04-24T05:49:51;1.40;;;1.10;;
19149;SDS011;9707;49.158;8.632;2023-04-24T05:52:16;1.73;;;1.20;;
19149;SDS011;9707;49.158;8.632;2023-04-24T05:54:41;3.20;;;1.52;;
19149;SDS011;9707;49.158;8.632;2023-04-24T05:57:07;2.78;;;1.60;;
19149;SDS011;9707;49.158;8.632;2023-04-24T05:59:33;1.40;;;1.30;;
19149;SDS011;9707;49.158;8.632;2023-04-24T06:01:59;1.88;;;1.23;;
19149;SDS011;9707;49.158;8.632;2023-04-24T06:04:24;2.33;;;1.50;;
19149;SDS011;9707;49.158;8.632;2023-04-24T06:06:50;1.65;;;1.30;;
19149;SDS011;9707;49.158;8.632;2023-04-24T06:09:20;2.85;;;1.50;;
19149;SDS011;9707;49.158;8.632;2023-04-24T06:11:46;2.03;;;1.30;;
19149;SDS011;9707;49.158;8.632;2023-04-24T06:14:11;4.13;;;1.50;;
19149;SDS011;9707;49.158;8.632;2023-04-24T06:16:36;3.28;;;1.73;;
19149;SDS011;9707;49.158;8.632;2023-04-24T06:19:03;2.35;;;1.50;;
19149;SDS011;9707;49.158;8.632;2023-04-24T06:21:28;2.03;;;1.55;;
19149;SDS011;9707;49.158;8.632;2023-04-24T06:23:54;1.30;;;1.20;;
19149;SDS011;9707;49.158;8.632;2023-04-24T06:26:20;1.33;;;1.23;;
19149;SDS011;9707;49.158;8.632;2023-04-24T06:28:47;2.05;;;1.33;;
19149;SDS011;9707;49.158;8.632;2023-04-24T06:31:12;1.23;;;1.10;;
19149;SDS011;9707;49.158;8.632;2023-04-24T06:33:37;1.90;;;1.20;;
19149;SDS011;9707;49.158;8.632;2023-04-24T06:36:02;1.77;;;1.20;;
19149;SDS011;9707;49.158;8.632;2023-04-24T06:38:28;3.17;;;1.10;;
19149;SDS011;9707;49.158;8.632;2023-04-24T06:40:54;1.38;;;1.10;;
19149;SDS011;9707;49.158;8.632;2023-04-24T06:43:19;1.65;;;1.23;;
19149;SDS011;9707;49.158;8.632;2023-04-24T06:45:45;2.35;;;1.20;;
19149;SDS011;9707;49.158;8.632;2023-04-24T06:48:11;2.35;;;1.13;;
19149;SDS011;9707;49.158;8.632;2023-04-24T06:50:37;1.83;;;1.00;;
19149;SDS011;9707;49.158;8.632;2023-04-24T06:53:02;1.45;;;1.05;;
19149;SDS011;9707;49.158;8.632;2023-04-24T06:55:28;3.03;;;1.35;;
19149;SDS011;9707;49.158;8.632;2023-04-24T06:57:53;1.83;;;1.05;;
19149;SDS011;9707;49.158;8.632;2023-04-24T07:00:18;1.85;;;1.02;;
19149;SDS011;9707;49.158;8.632;2023-04-24T07:02:44;1.15;;;1.00;;
19149;SDS011;9707;49.158;8.632;2023-04-24T07:05:09;2.42;;;0.90;;
19149;SDS011;9707;49.158;8.632;2023-04-24T07:07:34;1.98;;;1.20;;
19149;SDS011;9707;49.158;8.632;2023-04-24T07:10:02;2.72;;;1.10;;
19149;SDS011;9707;49.158;8.632;2023-04-24T07:12:28;1.35;;;1.15;;
19149;SDS011;9707;49.158;8.632;2023-04-24T07:14:54;3.85;;;1.20;;
19149;SDS011;9707;49.158;8.632;2023-04-24T07:17:19;2.63;;;1.20;;
19149;SDS011;9707;49.158;8.632;2023-04-24T07:19:44;1.98;;;1.00;;
19149;SDS011;9707;49.158;8.632;2023-04-24T07:22:10;1.15;;;1.00;;
19149;SDS011;9707;49.158;8.632;2023-04-24T07:24:41;2.75;;;1.40;;
19149;SDS011;9707;49.158;8.632;2023-04-24T07:27:06;3.40;;;0.90;;
19149;SDS011;9707;49.158;8.632;2023-04-24T07:29:32;2.60;;;1.20;;
19149;SDS011;9707;49.158;8.632;2023-04-24T07:31:57;2.63;;;1.10;;
19149;SDS011;9707;49.158;8.632;2023-04-24T07:34:22;1.88;;;1.00;;
19149;SDS011;9707;49.158;8.632;2023-04-24T07:36:47;1.60;;;1.13;;
19149;SDS011;9707;49.158;8.632;2023-04-24T07:39:13;2.08;;;0.90;;
19149;SDS011;9707;49.158;8.632;2023-04-24T07:41:41;3.03;;;1.08;;
19149;SDS011;9707;49.158;8.632;2023-04-24T07:44:06;1.95;;;1.00;;
19149;SDS011;9707;49.158;8.632;2023-04-24T07:46:32;3.28;;;0.93;;
19149;SDS011;9707;49.158;8.632;2023-04-24T07:48:57;2.67;;;0.90;;
19149;SDS011;9707;49.158;8.632;2023-04-24T07:51:24;2.90;;;1.10;;
19149;SDS011;9707;49.158;8.632;2023-04-24T07:53:52;1.15;;;0.90;;
19149;SDS011;9707;49.158;8.632;2023-04-24T07:56:17;0.90;;;0.70;;
19149;SDS011;9707;49.158;8.632;2023-04-24T07:58:43;1.33;;;1.00;;
19149;SDS011;9707;49.158;8.632;2023-04-24T08:01:08;1.02;;;0.70;;
19149;SDS011;9707;49.158;8.632;2023-04-24T08:03:33;3.15;;;0.77;;
19149;SDS011;9707;49.158;8.632;2023-04-24T08:05:58;0.95;;;0.60;;
19149;SDS011;9707;49.158;8.632;2023-04-24T08:08:24;2.30;;;0.80;;
19149;SDS011;9707;49.158;8.632;2023-04-24T08:10:49;1.55;;;0.60;;
19149;SDS011;9707;49.158;8.632;2023-04-24T08:13:15;1.90;;;0.98;;
19149;SDS011;9707;49.158;8.632;2023-04-24T08:15:40;1.02;;;0.80;;
19149;SDS011;9707;49.158;8.632;2023-04-24T08:18:05;0.95;;;0.80;;
19149;SDS011;9707;49.158;8.632;2023-04-24T08:20:31;2.65;;;1.00;;
19149;SDS011;9707;49.158;8.632;2023-04-24T08:22:56;1.02;;;0.75;;
19149;SDS011;9707;49.158;8.632;2023-04-24T08:25:22;1.92;;;0.95;;
19149;SDS011;9707;49.158;8.632;2023-04-24T08:27:48;2.72;;;0.80;;
19149;SDS011;9707;49.158;8.632;2023-04-24T08:30:13;2.25;;;0.63;;
19149;SDS011;9707;49.158;8.632;2023-04-24T08:32:39;1.17;;;0.60;;
19149;SDS011;9707;49.158;8.632;2023-04-24T08:35:04;1.92;;;0.60;;
19149;SDS011;9707;49.158;8.632;2023-04-24T08:37:30;1.67;;;0.80;;
19149;SDS011;9707;49.158;8.632;2023-04-24T08:39:55;2.15;;;0.70;;
19149;SDS011;9707;49.158;8.632;2023-04-24T08:42:21;1.90;;;0.73;;
19149;SDS011;9707;49.158;8.632;2023-04-24T08:44:47;2.35;;;0.98;;
19149;SDS011;9707;49.158;8.632;2023-04-24T08:47:14;1.65;;;1.00;;
19149;SDS011;9707;49.158;8.632;2023-04-24T08:49:40;1.58;;;0.73;;
19149;SDS011;9707;49.158;8.632;2023-04-24T08:52:05;3.60;;;0.95;;
19149;SDS011;9707;49.158;8.632;2023-04-24T08:54:31;1.88;;;0.75;;
19149;SDS011;9707;49.158;8.632;2023-04-24T08:56:59;2.90;;;0.60;;
19149;SDS011;9707;49.158;8.632;2023-04-24T08:59:29;1.95;;;0.85;;
19149;SDS011;9707;49.158;8.632;2023-04-24T09:01:55;1.55;;;0.93;;
19149;SDS011;9707;49.158;8.632;2023-04-24T09:04:21;2.25;;;0.82;;
19149;SDS011;9707;49.158;8.632;2023-04-24T09:06:49;1.08;;;0.82;;
19149;SDS011;9707;49.158;8.632;2023-04-24T09:09:15;1.45;;;0.73;;
19149;SDS011;9707;49.158;8.632;2023-04-24T09:11:42;0.82;;;0.60;;
19149;SDS011;9707;49.158;8.632;2023-04-24T09:14:09;1.23;;;0.70;;
19149;SDS011;9707;49.158;8.632;2023-04-24T09:16:34;1.88;;;0.80;;
19149;SDS011;9707;49.158;8.632;2023-04-24T09:19:00;2.10;;;1.00;;
19149;SDS011;9707;49.158;8.632;2023-04-24T09:21:26;1.35;;;0.77;;
19149;SDS011;9707;49.158;8.632;2023-04-24T09:24:01;1.60;;;0.70;;
19149;SDS011;9707;49.158;8.632;2023-04-24T09:26:31;1.63;;;1.00;;
19149;SDS011;9707;49.158;8.632;2023-04-24T09:28:59;1.17;;;0.90;;
19149;SDS011;9707;49.158;8.632;2023-04-24T09:31:26;4.78;;;1.15;;
19149;SDS011;9707;49.158;8.632;2023-04-24T09:33:54;3.22;;;1.08;;
19149;SDS011;9707;49.158;8.632;2023-04-24T09:36:29;1.50;;;1.02;;
19149;SDS011;9707;49.158;8.632;2023-04-24T09:38:58;1.60;;;1.00;;
19149;SDS011;9707;49.158;8.632;2023-04-24T09:41:27;2.75;;;1.17;;
19149;SDS011;9707;49.158;8.632;2023-04-24T09:43:54;2.67;;;1.20;;
19149;SDS011;9707;49.158;8.632;2023-04-24T09:46:20;2.63;;;1.55;;
19149;SDS011;9707;49.158;8.632;2023-04-24T09:48:47;4.47;;;1.98;;
19149;SDS011;9707;49.158;8.632;2023-04-24T09:51:12;2.47;;;1.25;;
19149;SDS011;9707;49.158;8.632;2023-04-24T09:53:38;2.85;;;1.38;;
19149;SDS011;9707;49.158;8.632;2023-04-24T09:56:07;3.63;;;1.30;;
19149;SDS011;9707;49.158;8.632;2023-04-24T09:58:34;2.72;;;1.38;;
19149;SDS011;9707;49.158;8.632;2023-04-24T10:01:00;3.38;;;1.45;;
19149;SDS011;9707;49.158;8.632;2023-04-24T10:03:26;2.50;;;1.10;;
19149;SDS011;9707;49.158;8.632;2023-04-24T10:05:58;1.98;;;1.45;;
19149;SDS011;9707;49.158;8.632;2023-04-24T10:08:24;2.38;;;1.38;;
19149;SDS011;9707;49.158;8.632;2023-04-24T10:10:50;2.92;;;1.40;;
19149;SDS011;9707;49.158;8.632;2023-04-24T10:13:15;1.70;;;1.40;;
19149;SDS011;9707;49.158;8.632;2023-04-24T10:15:41;1.73;;;1.38;;
19149;SDS011;9707;49.158;8.632;2023-04-24T10:18:08;4.10;;;1.33;;
19149;SDS011;9707;49.158;8.632;2023-04-24T10:20:34;1.85;;;1.60;;
19149;SDS011;9707;49.158;8.632;2023-04-24T10:23:01;2.38;;;1.80;;
19149;SDS011;9707;49.158;8.632;2023-04-24T10:25:31;3.30;;;1.50;;
19149;SDS011;9707;49.158;8.632;2023-04-24T10:27:58;3.35;;;1.60;;
19149;SDS011;9707;49.158;8.632;2023-04-24T10:30:29;3.10;;;1.58;;
19149;SDS011;9707;49.158;8.632;2023-04-24T10:32:55;1.65;;;1.45;;
19149;SDS011;9707;49.158;8.632;2023-04-24T10:35:21;3.30;;;1.70;;
19149;SDS011;9707;49.158;8.632;2023-04-24T10:37:50;2.85;;;1.80;;
19149;SDS011;9707;49.158;8.632;2023-04-24T10:40:25;2.58;;;1.60;;
19149;SDS011;9707;49.158;8.632;2023-04-24T10:42:52;2.38;;;1.85;;
19149;SDS011;9707;49.158;8.632;2023-04-24T10:45:19;4.07;;;2.13;;
19149;SDS011;9707;49.158;8.632;2023-04-24T10:47:53;2.63;;;1.85;;
19149;SDS011;9707;49.158;8.632;2023-04-24T10:50:23;1.88;;;1.70;;
19149;SDS011;9707;49.158;8.632;2023-04-24T10:52:48;2.55;;;2.05;;
19149;SDS011;9707;49.158;8.632;2023-04-24T10:58:10;3.35;;;1.85;;
19149;SDS011;9707;49.158;8.632;2023-04-24T11:00:37;2.20;;;1.55;;
19149;SDS011;9707;49.158;8.632;2023-04-24T11:03:04;3.90;;;1.70;;
19149;SDS011;9707;49.158;8.632;2023-04-24T11:08:21;3.45;;;2.17;;
19149;SDS011;9707;49.158;8.632;2023-04-24T11:10:56;4.35;;;2.40;;
19149;SDS011;9707;49.158;8.632;2023-04-24T11:13:23;4.45;;;2.20;;
19149;SDS011;9707;49.158;8.632;2023-04-24T11:18:45;4.32;;;2.22;;
19149;SDS011;9707;49.158;8.632;2023-04-24T11:21:16;4.60;;;2.35;;
19149;SDS011;9707;49.158;8.632;2023-04-24T11:23:42;2.95;;;1.98;;
19149;SDS011;9707;49.158;8.632;2023-04-24T11:26:11;4.05;;;2.20;;
19149;SDS011;9707;49.158;8.632;2023-04-24T11:28:48;4.50;;;1.80;;
19149;SDS011;9707;49.158;8.632;2023-04-24T11:34:14;3.40;;;2.38;;
19149;SDS011;9707;49.158;8.632;2023-04-24T11:36:40;2.22;;;1.75;;
19149;SDS011;9707;49.158;8.632;2023-04-24T11:39:07;3.95;;;2.08;;
19149;SDS011;9707;49.158;8.632;2023-04-24T11:41:33;4.10;;;1.95;;
19149;SDS011;9707;49.158;8.632;2023-04-24T11:43:59;4.78;;;2.10;;
19149;SDS011;9707;49.158;8.632;2023-04-24T11:46:28;2.65;;;2.03;;
19149;SDS011;9707;49.158;8.632;2023-04-24T11:48:55;2.60;;;1.95;;
19149;SDS011;9707;49.158;8.632;2023-04-24T11:51:22;2.53;;;1.90;;
19149;SDS011;9707;49.158;8.632;2023-04-24T11:53:48;4.07;;;2.15;;
19149;SDS011;9707;49.158;8.632;2023-04-24T11:56:16;3.25;;;2.20;;
19149;SDS011;9707;49.158;8.632;2023-04-24T11:58:44;2.40;;;1.98;;
19149;SDS011;9707;49.158;8.632;2023-04-24T12:01:09;3.60;;;2.10;;
19149;SDS011;9707;49.158;8.632;2023-04-24T12:03:35;3.78;;;2.20;;
19149;SDS011;9707;49.158;8.632;2023-04-24T12:06:09;2.10;;;1.80;;
19149;SDS011;9707;49.158;8.632;2023-04-24T12:08:37;2.72;;;1.77;;
19149;SDS011;9707;49.158;8.632;2023-04-24T12:11:03;2.90;;;2.00;;
19149;SDS011;9707;49.158;8.632;2023-04-24T12:13:30;2.88;;;2.10;;
19149;SDS011;9707;49.158;8.632;2023-04-24T12:15:58;5.28;;;2.30;;
19149;SDS011;9707;49.158;8.632;2023-04-24T12:18:24;4.47;;;1.95;;
19149;SDS011;9707;49.158;8.632;2023-04-24T12:20:49;2.17;;;1.95;;
19149;SDS011;9707;49.158;8.632;2023-04-24T12:23:15;2.65;;;1.95;;
19149;SDS011;9707;49.158;8.632;2023-04-24T12:25:41;2.97;;;2.08;;
19149;SDS011;9707;49.158;8.632;2023-04-24T12:30:38;4.80;;;2.15;;
19149;SDS011;9707;49.158;8.632;2023-04-24T12:33:20;5.65;;;2.17;;
19149;SDS011;9707;49.158;8.632;2023-04-24T12:35:46;2.08;;;1.92;;
19149;SDS011;9707;49.158;8.632;2023-04-24T12:38:13;3.33;;;1.90;;
19149;SDS011;9707;49.158;8.632;2023-04-24T12:40:39;2.75;;;1.80;;
19149;SDS011;9707;49.158;8.632;2023-04-24T12:43:13;3.15;;;1.90;;
19149;SDS011;9707;49.158;8.632;2023-04-24T12:45:43;3.78;;;1.90;;
19149;SDS011;9707;49.158;8.632;2023-04-24T12:48:09;4.18;;;2.00;;
19149;SDS011;9707;49.158;8.632;2023-04-24T12:50:35;3.30;;;1.90;;
19149;SDS011;9707;49.158;8.632;2023-04-24T12:53:00;3.63;;;2.22;;
19149;SDS011;9707;49.158;8.632;2023-04-24T12:55:25;2.92;;;1.65;;
19149;SDS011;9707;49.158;8.632;2023-04-24T12:57:51;4.28;;;2.15;;
19149;SDS011;9707;49.158;8.632;2023-04-24T13:00:17;2.45;;;2.03;;
19149;SDS011;9707;49.158;8.632;2023-04-24T13:02:42;4.10;;;2.13;;
19149;SDS011;9707;49.158;8.632;2023-04-24T13:05:08;1.88;;;1.58;;
19149;SDS011;9707;49.158;8.632;2023-04-24T13:07:33;3.33;;;1.98;;
19149;SDS011;9707;49.158;8.632;2023-04-24T13:09:59;3.38;;;1.80;;
19149;SDS011;9707;49.158;8.632;2023-04-24T13:12:24;3.00;;;2.00;;
19149;SDS011;9707;49.158;8.632;2023-04-24T13:14:50;3.33;;;2.38;;
19149;SDS011;9707;49.158;8.632;2023-04-24T13:17:15;1.90;;;1.50;;
19149;SDS011;9707;49.158;8.632;2023-04-24T13:19:42;4.65;;;1.95;;
19149;SDS011;9707;49.158;8.632;2023-04-24T13:22:11;3.38;;;2.15;;
19149;SDS011;9707;49.158;8.632;2023-04-24T13:24:38;2.22;;;1.90;;
19149;SDS011;9707;49.158;8.632;2023-04-24T13:27:05;2.97;;;1.70;;
19149;SDS011;9707;49.158;8.632;2023-04-24T13:29:31;2.72;;;2.20;;
19149;SDS011;9707;49.158;8.632;2023-04-24T13:31:56;3.33;;;1.70;;
19149;SDS011;9707;49.158;8.632;2023-04-24T13:34:22;1.65;;;1.52;;
19149;SDS011;9707;49.158;8.632;2023-04-24T13:36:49;2.00;;;1.58;;
19149;SDS011;9707;49.158;8.632;2023-04-24T13:39:15;2.70;;;1.88;;
19149;SDS011;9707;49.158;8.632;2023-04-24T13:41:41;3.83;;;1.90;;
19149;SDS011;9707;49.158;8.632;2023-04-24T13:44:06;2.42;;;1.60;;
19149;SDS011;9707;49.158;8.632;2023-04-24T13:46:31;3.80;;;1.70;;
19149;SDS011;9707;49.158;8.632;2023-04-24T13:48:57;2.90;;;1.85;;
19149;SDS011;9707;49.158;8.632;2023-04-24T13:51:24;3.80;;;1.73;;
19149;SDS011;9707;49.158;8.632;2023-04-24T13:53:52;3.05;;;1.83;;
19149;SDS011;9707;49.158;8.632;2023-04-24T13:56:17;1.98;;;1.40;;
19149;SDS011;9707;49.158;8.632;2023-04-24T13:58:43;1.45;;;1.35;;
19149;SDS011;9707;49.158;8.632;2023-04-24T14:01:08;2.88;;;1.80;;
19149;SDS011;9707;49.158;8.632;2023-04-24T14:03:33;3.25;;;1.67;;
19149;SDS011;9707;49.158;8.632;2023-04-24T14:05:58;2.58;;;1.48;;
19149;SDS011;9707;49.158;8.632;2023-04-24T14:08:24;2.80;;;1.65;;
19149;SDS011;9707;49.158;8.632;2023-04-24T14:10:50;2.35;;;1.70;;
19149;SDS011;9707;49.158;8.632;2023-04-24T14:13:16;6.88;;;1.90;;
19149;SDS011;9707;49.158;8.632;2023-04-24T14:15:41;2.08;;;1.75;;
19149;SDS011;9707;49.158;8.632;2023-04-24T14:18:06;2.53;;;1.48;;
19149;SDS011;9707;49.158;8.632;2023-04-24T14:20:32;3.53;;;1.90;;
19149;SDS011;9707;49.158;8.632;2023-04-24T14:22:57;3.05;;;1.80;;
19149;SDS011;9707;49.158;8.632;2023-04-24T14:25:25;2.55;;;1.77;;
19149;SDS011;9707;49.158;8.632;2023-04-24T14:27:51;2.85;;;1.83;;
19149;SDS011;9707;49.158;8.632;2023-04-24T14:30:16;2.40;;;1.67;;
19149;SDS011;9707;49.158;8.632;2023-04-24T14:32:43;3.08;;;1.60;;
19149;SDS011;9707;49.158;8.632;2023-04-24T14:35:08;5.22;;;1.80;;
19149;SDS011;9707;49.158;8.632;2023-04-24T14:37:33;2.92;;;1.60;;
19149;SDS011;9707;49.158;8.632;2023-04-24T14:39:59;3.42;;;1.95;;
19149;SDS011;9707;49.158;8.632;2023-04-24T14:42:25;2.58;;;1.60;;
19149;SDS011;9707;49.158;8.632;2023-04-24T14:44:50;2.47;;;2.10;;
19149;SDS011;9707;49.158;8.632;2023-04-24T14:47:16;4.00;;;1.85;;
19149;SDS011;9707;49.158;8.632;2023-04-24T14:49:42;2.92;;;1.88;;
19149;SDS011;9707;49.158;8.632;2023-04-24T14:52:08;3.33;;;1.70;;
19149;SDS011;9707;49.158;8.632;2023-04-24T14:54:34;4.28;;;2.05;;
19149;SDS011;9707;49.158;8.632;2023-04-24T14:57:00;3.88;;;1.73;;
19149;SDS011;9707;49.158;8.632;2023-04-24T14:59:26;2.22;;;1.70;;
19149;SDS011;9707;49.158;8.632;2023-04-24T15:01:52;2.50;;;1.70;;
19149;SDS011;9707;49.158;8.632;2023-04-24T15:04:21;2.92;;;1.63;;
19149;SDS011;9707;49.158;8.632;2023-04-24T15:06:46;2.30;;;2.03;;